createdAt,value
2023-07-30T00:00:26.873Z,4.80
2023-07-30T00:01:26.972Z,4.90
2023-07-30T00:02:26.893Z,5.40
2023-07-30T00:03:26.958Z,5.10
2023-07-30T00:04:26.876Z,5.10
2023-07-30T00:05:26.852Z,5.20
2023-07-30T00:06:26.791Z,4.90
2023-07-30T00:07:26.797Z,5.00
2023-07-30T00:08:26.772Z,5.10
2023-07-30T00:09:26.858Z,5.90
2023-07-30T00:10:26.740Z,5.10
2023-07-30T00:11:26.722Z,5.10
2023-07-30T00:12:26.710Z,5.00
2023-07-30T00:13:26.724Z,5.20
2023-07-30T00:14:26.724Z,5.00
2023-07-30T00:15:26.993Z,5.40
2023-07-30T00:16:26.652Z,4.70
2023-07-30T00:17:26.661Z,5.10
2023-07-30T00:18:26.689Z,5.00
2023-07-30T00:19:26.642Z,4.50
2023-07-30T00:20:27.829Z,5.10
2023-07-30T00:21:26.590Z,5.00
2023-07-30T00:22:26.609Z,4.80
2023-07-30T00:23:26.561Z,4.70
2023-07-30T00:24:26.600Z,4.50
2023-07-30T00:25:26.557Z,4.80
2023-07-30T00:26:26.541Z,4.60
2023-07-30T00:27:26.523Z,4.40
2023-07-30T00:28:26.581Z,4.50
2023-07-30T00:29:26.525Z,4.50
2023-07-30T00:30:26.468Z,4.90
2023-07-30T00:31:26.494Z,4.90
2023-07-30T00:32:26.517Z,4.90
2023-07-30T00:33:26.498Z,4.90
2023-07-30T00:34:26.439Z,5.00
2023-07-30T00:35:26.431Z,4.80
2023-07-30T00:36:26.403Z,5.10
2023-07-30T00:37:26.404Z,5.20
2023-07-30T00:38:26.412Z,4.90
2023-07-30T00:39:26.351Z,5.10
2023-07-30T00:40:26.371Z,5.10
2023-07-30T00:41:26.348Z,5.20
2023-07-30T00:42:26.372Z,5.20
2023-07-30T00:43:26.330Z,5.10
2023-07-30T00:44:26.303Z,5.00
2023-07-30T00:45:26.318Z,5.50
2023-07-30T00:46:26.326Z,5.50
2023-07-30T00:47:26.340Z,5.10
2023-07-30T00:48:26.261Z,5.20
2023-07-30T00:49:26.297Z,5.30
2023-07-30T00:50:26.216Z,4.80
2023-07-30T00:51:26.305Z,4.90
2023-07-30T00:52:26.201Z,5.00
2023-07-30T00:53:26.226Z,5.10
2023-07-30T00:54:26.404Z,4.80
2023-07-30T00:55:26.158Z,4.70
2023-07-30T00:56:26.134Z,4.40
2023-07-30T00:57:26.153Z,4.50
2023-07-30T00:58:26.152Z,4.90
2023-07-30T00:59:26.123Z,4.60
2023-07-30T01:00:26.139Z,4.50
2023-07-30T01:01:26.142Z,4.40
2023-07-30T01:02:26.117Z,4.20
2023-07-30T01:03:26.091Z,4.50
2023-07-30T01:04:27.009Z,4.10
2023-07-30T01:05:26.029Z,3.90
2023-07-30T01:06:26.024Z,3.90
2023-07-30T01:07:26.061Z,4.30
2023-07-30T01:08:25.983Z,4.20
2023-07-30T01:09:25.985Z,4.60
2023-07-30T01:10:26.023Z,4.30
2023-07-30T01:11:26.020Z,4.00
2023-07-30T01:12:25.929Z,4.00
2023-07-30T01:13:25.928Z,4.40
2023-07-30T01:14:25.910Z,4.60
2023-07-30T01:15:25.961Z,4.00
2023-07-30T01:16:25.924Z,4.80
2023-07-30T01:17:25.935Z,4.40
2023-07-30T01:18:25.861Z,4.60
2023-07-30T01:19:25.858Z,4.70
2023-07-30T01:20:25.853Z,4.40
2023-07-30T01:21:25.866Z,5.20
2023-07-30T01:22:25.797Z,4.80
2023-07-30T01:23:25.794Z,5.40
2023-07-30T01:24:25.768Z,5.20
2023-07-30T01:25:25.833Z,4.90
2023-07-30T01:26:25.733Z,4.50
2023-07-30T01:27:25.741Z,5.30
2023-07-30T01:28:25.741Z,4.70
2023-07-30T01:29:25.739Z,4.90
2023-07-30T01:30:25.735Z,5.00
2023-07-30T01:31:25.861Z,4.90
2023-07-30T01:32:25.708Z,4.40
2023-07-30T01:33:25.689Z,5.10
2023-07-30T01:34:25.693Z,5.20
2023-07-30T01:35:25.650Z,5.20
2023-07-30T01:36:25.668Z,5.30
2023-07-30T01:37:25.610Z,4.90
2023-07-30T01:38:25.601Z,5.20
2023-07-30T01:39:25.598Z,5.20
2023-07-30T01:40:25.626Z,5.50
2023-07-30T01:41:25.630Z,5.40
2023-07-30T01:42:25.618Z,5.30
2023-07-30T01:43:25.557Z,5.30
2023-07-30T01:44:25.552Z,5.60
2023-07-30T01:45:25.559Z,5.50
2023-07-30T01:46:25.618Z,5.60
2023-07-30T01:47:25.497Z,5.60
2023-07-30T01:48:25.460Z,5.70
2023-07-30T01:49:25.469Z,5.80
2023-07-30T01:50:25.461Z,6.10
2023-07-30T01:51:25.443Z,5.50
2023-07-30T01:52:25.412Z,5.70
2023-07-30T01:53:25.393Z,5.90
2023-07-30T01:54:25.515Z,6.10
2023-07-30T01:55:25.410Z,5.60
2023-07-30T01:56:25.365Z,5.80
2023-07-30T01:57:25.395Z,5.80
2023-07-30T01:58:25.333Z,5.70
2023-07-30T01:59:25.357Z,6.20
2023-07-30T02:00:25.308Z,6.70
2023-07-30T02:01:25.326Z,6.20
2023-07-30T02:02:25.330Z,6.50
2023-07-30T02:03:25.366Z,6.10
2023-07-30T02:04:25.288Z,6.30
2023-07-30T02:05:25.248Z,6.60
2023-07-30T02:06:25.225Z,6.60
2023-07-30T02:07:25.238Z,6.30
2023-07-30T02:08:25.200Z,6.70
2023-07-30T02:09:25.242Z,6.60
2023-07-30T02:10:25.174Z,6.60
2023-07-30T02:11:25.179Z,6.60
2023-07-30T02:12:25.194Z,7.50
2023-07-30T02:13:25.193Z,7.60
2023-07-30T02:14:25.137Z,6.80
2023-07-30T02:15:25.130Z,7.10
2023-07-30T02:16:25.392Z,7.10
2023-07-30T02:17:25.097Z,7.30
2023-07-30T02:18:25.103Z,7.30
2023-07-30T02:19:25.085Z,7.70
2023-07-30T02:20:25.121Z,6.80
2023-07-30T02:21:25.075Z,6.90
2023-07-30T02:22:25.035Z,7.40
2023-07-30T02:23:25.044Z,7.30
2023-07-30T02:24:24.986Z,7.00
2023-07-30T02:25:24.989Z,7.40
2023-07-30T02:26:25.000Z,8.20
2023-07-30T02:27:24.960Z,7.60
2023-07-30T02:28:25.041Z,7.60
2023-07-30T02:29:24.952Z,8.30
2023-07-30T02:30:24.951Z,9.20
2023-07-30T02:31:25.068Z,8.10
2023-07-30T02:32:24.943Z,7.30
2023-07-30T02:33:24.903Z,8.90
2023-07-30T02:34:24.862Z,8.60
2023-07-30T02:35:24.885Z,8.50
2023-07-30T02:36:24.839Z,9.20
2023-07-30T02:37:24.850Z,8.90
2023-07-30T02:38:24.826Z,9.00
2023-07-30T02:39:24.802Z,9.90
2023-07-30T02:40:24.814Z,10.10
2023-07-30T02:41:24.824Z,10.10
2023-07-30T02:42:24.769Z,10.20
2023-07-30T02:43:24.801Z,9.90
2023-07-30T02:44:24.727Z,9.80
2023-07-30T02:45:24.747Z,10.40
2023-07-30T02:46:24.740Z,10.20
2023-07-30T02:47:24.731Z,10.60
2023-07-30T02:48:24.705Z,11.10
2023-07-30T02:49:24.687Z,10.30
2023-07-30T02:50:24.729Z,11.40
2023-07-30T02:51:24.739Z,11.40
2023-07-30T02:52:24.648Z,11.30
2023-07-30T02:53:24.642Z,10.70
2023-07-30T02:54:24.625Z,12.00
2023-07-30T02:55:24.601Z,11.70
2023-07-30T02:56:24.580Z,11.40
2023-07-30T02:57:24.599Z,11.50
2023-07-30T02:58:24.603Z,11.20
2023-07-30T02:59:24.557Z,10.90
2023-07-30T03:00:24.584Z,11.90
2023-07-30T03:01:24.687Z,11.00
2023-07-30T03:02:24.607Z,11.20
2023-07-30T03:03:24.639Z,11.10
2023-07-30T03:04:24.498Z,11.20
2023-07-30T03:05:24.503Z,13.00
2023-07-30T03:06:24.456Z,12.70
2023-07-30T03:07:24.461Z,12.00
2023-07-30T03:08:24.459Z,11.80
2023-07-30T03:09:24.447Z,12.90
2023-07-30T03:10:24.436Z,11.70
2023-07-30T03:11:24.394Z,13.00
2023-07-30T03:12:24.374Z,13.60
2023-07-30T03:13:24.370Z,12.10
2023-07-30T03:14:24.370Z,13.80
2023-07-30T03:15:24.414Z,12.60
2023-07-30T03:16:24.447Z,13.40
2023-07-30T03:17:24.329Z,12.90
2023-07-30T03:18:24.291Z,12.60
2023-07-30T03:19:24.294Z,13.90
2023-07-30T03:20:24.293Z,13.40
2023-07-30T03:21:24.246Z,12.80
2023-07-30T03:22:24.325Z,12.70
2023-07-30T03:23:24.227Z,14.10
2023-07-30T03:24:24.228Z,13.30
2023-07-30T03:25:24.256Z,12.10
2023-07-30T03:26:24.179Z,14.10
2023-07-30T03:27:24.185Z,12.60
2023-07-30T03:28:24.268Z,12.80
2023-07-30T03:29:24.163Z,13.70
2023-07-30T03:30:24.187Z,14.80
2023-07-30T03:31:24.145Z,13.10
2023-07-30T03:32:24.106Z,13.60
2023-07-30T03:33:24.092Z,13.30
2023-07-30T03:34:24.093Z,13.00
2023-07-30T03:35:24.098Z,13.00
2023-07-30T03:36:24.091Z,12.30
2023-07-30T03:37:24.045Z,12.70
2023-07-30T03:38:24.029Z,12.80
2023-07-30T03:39:24.021Z,13.30
2023-07-30T03:40:24.038Z,12.80
2023-07-30T03:41:24.025Z,12.50
2023-07-30T03:42:23.951Z,12.20
2023-07-30T03:43:23.973Z,12.30
2023-07-30T03:44:23.957Z,12.60
2023-07-30T03:45:23.924Z,11.80
2023-07-30T03:46:24.050Z,12.60
2023-07-30T03:47:23.958Z,12.90
2023-07-30T03:48:23.889Z,12.50
2023-07-30T03:49:23.912Z,11.90
2023-07-30T03:50:23.919Z,11.80
2023-07-30T03:51:23.864Z,12.70
2023-07-30T03:52:23.823Z,13.30
2023-07-30T03:53:23.916Z,12.20
2023-07-30T03:54:23.821Z,12.00
2023-07-30T03:55:23.803Z,12.60
2023-07-30T03:56:23.852Z,11.70
2023-07-30T03:57:23.764Z,12.90
2023-07-30T03:58:23.837Z,12.20
2023-07-30T03:59:23.750Z,11.90
2023-07-30T04:00:23.728Z,11.30
2023-07-30T04:01:23.734Z,12.20
2023-07-30T04:02:23.734Z,12.60
2023-07-30T04:03:23.864Z,11.70
2023-07-30T04:04:23.702Z,11.10
2023-07-30T04:05:23.749Z,11.20
2023-07-30T04:06:23.674Z,11.90
2023-07-30T04:07:23.877Z,11.50
2023-07-30T04:08:23.630Z,11.10
2023-07-30T04:09:23.636Z,11.80
2023-07-30T04:10:23.615Z,11.60
2023-07-30T04:11:23.614Z,11.80
2023-07-30T04:12:23.614Z,11.40
2023-07-30T04:13:23.556Z,11.70
2023-07-30T04:14:23.568Z,11.60
2023-07-30T04:15:23.566Z,11.40
2023-07-30T04:16:23.575Z,12.90
2023-07-30T04:17:23.556Z,11.70
2023-07-30T04:18:23.526Z,10.80
2023-07-30T04:19:23.482Z,12.10
2023-07-30T04:20:23.493Z,12.20
2023-07-30T04:21:23.469Z,10.90
2023-07-30T04:22:23.564Z,12.60
2023-07-30T04:23:23.429Z,10.90
2023-07-30T04:24:23.427Z,10.50
2023-07-30T04:25:23.426Z,10.40
2023-07-30T04:26:23.434Z,11.30
2023-07-30T04:27:23.391Z,10.70
2023-07-30T04:28:23.501Z,10.30
2023-07-30T04:29:23.408Z,10.80
2023-07-30T04:30:23.355Z,11.20
2023-07-30T04:31:23.383Z,10.50
2023-07-30T04:32:23.341Z,10.20
2023-07-30T04:33:23.299Z,10.30
2023-07-30T04:34:23.288Z,9.80
2023-07-30T04:35:23.302Z,10.70
2023-07-30T04:36:23.292Z,11.60
2023-07-30T04:37:23.250Z,9.90
2023-07-30T04:38:23.233Z,10.00
2023-07-30T04:39:23.221Z,11.10
2023-07-30T04:40:23.250Z,9.60
2023-07-30T04:41:23.440Z,9.80
2023-07-30T04:42:23.205Z,9.70
2023-07-30T04:43:23.187Z,9.60
2023-07-30T04:44:23.160Z,9.20
2023-07-30T04:45:23.567Z,9.50
2023-07-30T04:46:23.286Z,9.70
2023-07-30T04:47:23.128Z,8.80
2023-07-30T04:48:23.197Z,9.40
2023-07-30T04:49:23.125Z,9.20
2023-07-30T04:50:23.116Z,9.00
2023-07-30T04:51:23.139Z,8.50
2023-07-30T04:52:23.056Z,9.00
2023-07-30T04:53:23.055Z,9.00
2023-07-30T04:54:23.038Z,8.00
2023-07-30T04:55:23.054Z,8.10
2023-07-30T04:56:23.030Z,8.40
2023-07-30T04:57:22.971Z,7.90
2023-07-30T04:58:22.981Z,8.50
2023-07-30T04:59:22.968Z,8.30
2023-07-30T05:00:23.043Z,7.80
2023-07-30T05:01:23.082Z,7.90
2023-07-30T05:02:22.928Z,7.40
2023-07-30T05:03:22.934Z,8.10
2023-07-30T05:04:22.915Z,7.20
2023-07-30T05:05:23.218Z,8.10
2023-07-30T05:06:22.951Z,7.50
2023-07-30T05:07:22.869Z,7.60
2023-07-30T05:08:22.947Z,7.80
2023-07-30T05:09:22.856Z,7.30
2023-07-30T05:10:22.805Z,7.20
2023-07-30T05:11:22.819Z,8.10
2023-07-30T05:12:22.823Z,7.50
2023-07-30T05:13:22.844Z,7.20
2023-07-30T05:14:22.770Z,7.60
2023-07-30T05:15:22.788Z,7.40
2023-07-30T05:16:22.816Z,7.10
2023-07-30T05:17:22.854Z,7.50
2023-07-30T05:18:22.750Z,7.20
2023-07-30T05:19:22.776Z,7.30
2023-07-30T05:20:22.705Z,7.10
2023-07-30T05:21:22.736Z,7.10
2023-07-30T05:22:22.653Z,6.90
2023-07-30T05:23:22.665Z,6.60
2023-07-30T05:24:22.637Z,6.70
2023-07-30T05:25:22.621Z,7.10
2023-07-30T05:26:22.629Z,7.20
2023-07-30T05:27:22.588Z,6.80
2023-07-30T05:28:22.606Z,6.80
2023-07-30T05:29:22.569Z,6.90
2023-07-30T05:30:22.570Z,6.60
2023-07-30T05:31:22.693Z,7.20
2023-07-30T05:32:22.554Z,7.10
2023-07-30T05:33:22.550Z,6.80
2023-07-30T05:34:22.529Z,7.40
2023-07-30T05:35:22.516Z,7.10
2023-07-30T05:36:22.514Z,7.10
2023-07-30T05:37:22.486Z,6.50
2023-07-30T05:38:22.512Z,7.30
2023-07-30T05:39:22.471Z,7.20
2023-07-30T05:40:22.465Z,6.70
2023-07-30T05:41:22.579Z,6.90
2023-07-30T05:42:22.448Z,6.60
2023-07-30T05:43:22.401Z,7.10
2023-07-30T05:44:22.374Z,6.90
2023-07-30T05:45:22.460Z,6.90
2023-07-30T05:46:22.412Z,6.50
2023-07-30T05:47:22.431Z,6.50
2023-07-30T05:48:22.371Z,7.30
2023-07-30T05:49:22.345Z,6.50
2023-07-30T05:50:22.354Z,7.30
2023-07-30T05:51:22.336Z,6.60
2023-07-30T05:52:22.338Z,7.40
2023-07-30T05:53:22.260Z,6.70
2023-07-30T05:54:22.239Z,6.60
2023-07-30T05:55:22.282Z,7.20
2023-07-30T05:56:22.253Z,6.90
2023-07-30T05:57:22.247Z,7.50
2023-07-30T05:58:22.190Z,6.70
2023-07-30T05:59:23.668Z,6.90
2023-07-30T06:00:22.237Z,7.40
2023-07-30T06:01:22.378Z,7.00
2023-07-30T06:02:22.141Z,6.90
2023-07-30T06:03:22.215Z,7.20
2023-07-30T06:04:22.098Z,6.90
2023-07-30T06:05:22.101Z,6.80
2023-07-30T06:06:22.193Z,6.70
2023-07-30T06:07:22.095Z,6.80
2023-07-30T06:08:22.105Z,7.20
2023-07-30T06:09:22.067Z,7.00
2023-07-30T06:10:22.113Z,7.10
2023-07-30T06:11:22.084Z,7.40
2023-07-30T06:12:22.052Z,6.90
2023-07-30T06:13:21.983Z,7.40
2023-07-30T06:14:21.986Z,7.30
2023-07-30T06:15:22.170Z,6.90
2023-07-30T06:16:22.065Z,6.70
2023-07-30T06:17:22.002Z,6.80
2023-07-30T06:18:21.926Z,6.80
2023-07-30T06:19:21.937Z,7.00
2023-07-30T06:20:21.905Z,7.30
2023-07-30T06:21:21.937Z,7.30
2023-07-30T06:22:21.908Z,7.30
2023-07-30T06:23:21.865Z,6.90
2023-07-30T06:24:21.866Z,7.50
2023-07-30T06:25:21.928Z,7.30
2023-07-30T06:26:21.870Z,6.90
2023-07-30T06:27:21.815Z,6.90
2023-07-30T06:28:21.849Z,7.70
2023-07-30T06:29:21.842Z,7.80
2023-07-30T06:30:21.784Z,7.50
2023-07-30T06:31:21.828Z,7.60
2023-07-30T06:32:21.812Z,7.20
2023-07-30T06:33:21.764Z,7.90
2023-07-30T06:34:21.809Z,8.00
2023-07-30T06:35:21.701Z,7.80
2023-07-30T06:36:21.730Z,8.30
2023-07-30T06:37:21.733Z,8.30
2023-07-30T06:38:21.796Z,9.20
2023-07-30T06:39:21.703Z,9.00
2023-07-30T06:40:21.662Z,9.30
2023-07-30T06:41:21.649Z,9.20
2023-07-30T06:42:21.659Z,9.40
2023-07-30T06:43:21.691Z,10.00
2023-07-30T06:44:21.665Z,9.00
2023-07-30T06:45:21.595Z,9.90
2023-07-30T06:46:21.671Z,9.30
2023-07-30T06:47:21.620Z,9.40
2023-07-30T06:48:21.603Z,9.20
2023-07-30T06:49:21.516Z,8.70
2023-07-30T06:50:21.631Z,8.90
2023-07-30T06:51:21.652Z,9.00
2023-07-30T06:52:21.524Z,8.60
2023-07-30T06:53:21.614Z,9.60
2023-07-30T06:54:21.462Z,9.40
2023-07-30T06:55:21.458Z,9.80
2023-07-30T06:56:21.595Z,9.50
2023-07-30T06:57:21.419Z,10.10
2023-07-30T06:58:21.424Z,9.20
2023-07-30T06:59:21.393Z,9.80
2023-07-30T07:00:21.390Z,9.50
2023-07-30T07:01:21.457Z,10.30
2023-07-30T07:02:21.547Z,9.40
2023-07-30T07:03:21.410Z,10.60
2023-07-30T07:04:21.362Z,9.50
2023-07-30T07:05:21.366Z,9.20
2023-07-30T07:06:21.380Z,9.10
2023-07-30T07:07:21.328Z,9.40
2023-07-30T07:08:21.341Z,9.90
2023-07-30T07:09:21.299Z,9.40
2023-07-30T07:10:21.309Z,8.70
2023-07-30T07:11:21.659Z,9.50
2023-07-30T07:12:21.249Z,9.80
2023-07-30T07:13:21.233Z,9.00
2023-07-30T07:14:21.222Z,10.40
2023-07-30T07:15:21.223Z,9.00
2023-07-30T07:16:21.206Z,8.10
2023-07-30T07:17:21.250Z,8.60
2023-07-30T07:18:21.219Z,8.50
2023-07-30T07:19:21.160Z,9.20
2023-07-30T07:20:21.176Z,9.30
2023-07-30T07:21:21.173Z,9.00
2023-07-30T07:22:21.146Z,8.60
2023-07-30T07:23:21.084Z,8.90
2023-07-30T07:24:25.336Z,8.30
2023-07-30T07:25:21.104Z,8.10
2023-07-30T07:26:21.311Z,9.20
2023-07-30T07:27:21.058Z,8.90
2023-07-30T07:28:21.047Z,7.80
2023-07-30T07:29:21.083Z,8.30
2023-07-30T07:30:21.040Z,8.40
2023-07-30T07:31:21.069Z,8.10
2023-07-30T07:32:21.088Z,8.20
2023-07-30T07:33:20.958Z,8.20
2023-07-30T07:34:21.004Z,8.50
2023-07-30T07:35:21.014Z,8.70
2023-07-30T07:36:20.984Z,8.60
2023-07-30T07:37:20.970Z,8.70
2023-07-30T07:38:20.980Z,8.20
2023-07-30T07:39:20.976Z,8.30
2023-07-30T07:40:20.954Z,8.10
2023-07-30T07:41:20.943Z,8.20
2023-07-30T07:42:20.882Z,8.10
2023-07-30T07:43:20.929Z,8.20
2023-07-30T07:44:20.875Z,8.00
2023-07-30T07:45:20.820Z,8.40
2023-07-30T07:46:20.851Z,7.90
2023-07-30T07:47:20.884Z,8.30
2023-07-30T07:48:20.781Z,7.70
2023-07-30T07:49:24.799Z,7.50
2023-07-30T07:50:20.852Z,7.80
2023-07-30T07:51:20.767Z,8.20
2023-07-30T07:52:20.735Z,7.50
2023-07-30T07:53:20.763Z,8.80
2023-07-30T07:54:20.800Z,8.20
2023-07-30T07:55:20.783Z,8.10
2023-07-30T07:56:20.787Z,8.60
2023-07-30T07:57:21.517Z,8.70
2023-07-30T07:58:20.705Z,8.20
2023-07-30T07:59:20.698Z,7.60
2023-07-30T08:00:20.682Z,8.20
2023-07-30T08:01:20.672Z,7.80
2023-07-30T08:02:20.647Z,8.00
2023-07-30T08:03:20.570Z,7.70
2023-07-30T08:04:20.652Z,7.60
2023-07-30T08:05:20.598Z,7.40
2023-07-30T08:06:20.593Z,7.80
2023-07-30T08:07:20.573Z,7.20
2023-07-30T08:08:20.572Z,7.60
2023-07-30T08:09:20.531Z,7.10
2023-07-30T08:10:20.499Z,7.40
2023-07-30T08:11:20.520Z,7.80
2023-07-30T08:12:20.462Z,7.20
2023-07-30T08:13:20.444Z,6.50
2023-07-30T08:14:22.244Z,6.80
2023-07-30T08:15:20.414Z,6.60
2023-07-30T08:16:20.447Z,7.70
2023-07-30T08:17:20.472Z,8.20
2023-07-30T08:18:20.395Z,7.20
2023-07-30T08:19:20.365Z,7.70
2023-07-30T08:20:20.442Z,7.80
2023-07-30T08:21:20.339Z,7.30
2023-07-30T08:22:20.339Z,7.60
2023-07-30T08:23:20.301Z,7.80
2023-07-30T08:24:20.304Z,7.50
2023-07-30T08:25:20.307Z,8.10
2023-07-30T08:26:20.322Z,8.10
2023-07-30T08:27:20.300Z,8.60
2023-07-30T08:28:20.346Z,7.90
2023-07-30T08:29:20.230Z,8.90
2023-07-30T08:30:20.245Z,8.20
2023-07-30T08:31:20.242Z,7.80
2023-07-30T08:32:20.259Z,7.80
2023-07-30T08:33:20.241Z,8.10
2023-07-30T08:34:20.200Z,7.80
2023-07-30T08:35:20.151Z,7.00
2023-07-30T08:36:22.755Z,7.00
2023-07-30T08:37:20.155Z,7.10
2023-07-30T08:38:20.123Z,7.40
2023-07-30T08:39:20.171Z,6.70
2023-07-30T08:40:20.232Z,6.80
2023-07-30T08:41:20.092Z,7.60
2023-07-30T08:42:20.129Z,7.30
2023-07-30T08:43:20.091Z,7.00
2023-07-30T08:44:20.043Z,6.50
2023-07-30T08:45:20.037Z,7.10
2023-07-30T08:46:20.196Z,6.30
2023-07-30T08:47:20.124Z,6.60
2023-07-30T08:48:19.993Z,6.50
2023-07-30T08:49:20.023Z,6.10
2023-07-30T08:50:20.000Z,5.80
2023-07-30T08:51:19.963Z,5.80
2023-07-30T08:52:19.939Z,5.90
2023-07-30T08:53:19.976Z,5.20
2023-07-30T08:54:19.908Z,6.00
2023-07-30T08:55:19.924Z,5.30
2023-07-30T08:56:19.924Z,5.20
2023-07-30T08:57:20.007Z,4.80
2023-07-30T08:58:19.837Z,5.20
2023-07-30T08:59:19.844Z,4.50
2023-07-30T09:00:19.947Z,4.50
2023-07-30T09:01:19.903Z,4.30
2023-07-30T09:02:19.826Z,4.50
2023-07-30T09:03:19.780Z,4.30
2023-07-30T09:04:19.800Z,4.10
2023-07-30T09:05:19.803Z,4.30
2023-07-30T09:06:19.809Z,4.00
2023-07-30T09:07:19.806Z,4.00
2023-07-30T09:08:19.903Z,4.20
2023-07-30T09:09:19.831Z,4.40
2023-07-30T09:10:19.835Z,4.10
2023-07-30T09:11:19.744Z,3.80
2023-07-30T09:12:19.669Z,4.00
2023-07-30T09:13:19.665Z,4.00
2023-07-30T09:14:19.665Z,3.80
2023-07-30T09:15:19.672Z,4.10
2023-07-30T09:16:19.687Z,3.70
2023-07-30T09:17:19.633Z,3.90
2023-07-30T09:18:19.599Z,4.00
2023-07-30T09:19:19.590Z,4.00
2023-07-30T09:20:19.610Z,4.00
2023-07-30T09:21:19.555Z,4.00
2023-07-30T09:22:19.520Z,3.60
2023-07-30T09:23:19.537Z,3.80
2023-07-30T09:24:19.521Z,3.60
2023-07-30T09:25:19.502Z,4.00
2023-07-30T09:26:19.493Z,3.90
2023-07-30T09:27:19.486Z,3.80
2023-07-30T09:28:19.618Z,3.90
2023-07-30T09:29:19.532Z,3.80
2023-07-30T09:30:19.512Z,3.60
2023-07-30T09:31:22.767Z,3.80
2023-07-30T09:32:19.430Z,3.80
2023-07-30T09:33:19.503Z,3.80
2023-07-30T09:34:19.414Z,3.70
2023-07-30T09:35:19.384Z,3.80
2023-07-30T09:36:19.382Z,4.00
2023-07-30T09:37:19.389Z,3.60
2023-07-30T09:38:19.362Z,3.80
2023-07-30T09:39:19.304Z,3.90
2023-07-30T09:40:19.390Z,3.90
2023-07-30T09:41:19.350Z,3.90
2023-07-30T09:42:19.306Z,3.90
2023-07-30T09:43:19.261Z,4.20
2023-07-30T09:44:19.333Z,4.10
2023-07-30T09:45:19.240Z,4.30
2023-07-30T09:46:19.228Z,4.40
2023-07-30T09:47:19.209Z,4.30
2023-07-30T09:48:19.252Z,4.30
2023-07-30T09:49:19.200Z,4.30
2023-07-30T09:50:19.212Z,4.70
2023-07-30T09:51:19.163Z,4.30
2023-07-30T09:52:19.166Z,3.90
2023-07-30T09:53:19.222Z,4.00
2023-07-30T09:54:19.211Z,4.00
2023-07-30T09:55:19.131Z,4.20
2023-07-30T09:56:19.140Z,4.40
2023-07-30T09:57:19.166Z,4.60
2023-07-30T09:58:19.089Z,4.70
2023-07-30T09:59:19.050Z,4.40
2023-07-30T10:00:19.060Z,4.60
2023-07-30T10:01:19.161Z,4.90
2023-07-30T10:02:19.025Z,4.90
2023-07-30T10:03:19.033Z,4.50
2023-07-30T10:04:19.019Z,4.60
2023-07-30T10:05:18.985Z,4.30
2023-07-30T10:06:19.031Z,4.60
2023-07-30T10:07:19.087Z,4.70
2023-07-30T10:08:18.924Z,4.30
2023-07-30T10:09:18.986Z,4.60
2023-07-30T10:10:18.935Z,4.70
2023-07-30T10:11:18.931Z,4.70
2023-07-30T10:12:18.941Z,5.10
2023-07-30T10:13:18.909Z,5.20
2023-07-30T10:14:18.851Z,5.10
2023-07-30T10:15:18.933Z,4.90
2023-07-30T10:16:19.003Z,4.60
2023-07-30T10:17:18.843Z,4.60
2023-07-30T10:18:18.859Z,5.30
2023-07-30T10:19:19.138Z,4.70
2023-07-30T10:20:18.807Z,5.00
2023-07-30T10:21:18.864Z,5.20
2023-07-30T10:22:18.816Z,4.60
2023-07-30T10:23:18.775Z,4.60
2023-07-30T10:24:18.813Z,4.90
2023-07-30T10:25:18.737Z,5.10
2023-07-30T10:26:18.756Z,5.00
2023-07-30T10:27:18.705Z,4.80
2023-07-30T10:28:18.774Z,5.30
2023-07-30T10:31:16.646Z,5.20
2023-07-30T10:32:20.704Z,4.60
2023-07-30T10:33:16.316Z,4.90
2023-07-30T10:34:16.093Z,5.00
2023-07-30T10:35:16.147Z,4.40
2023-07-30T10:36:16.088Z,4.70
2023-07-30T10:37:16.063Z,4.80
2023-07-30T10:38:16.053Z,4.50
2023-07-30T10:42:59.149Z,4.10
2023-07-30T10:43:58.991Z,4.20
2023-07-30T10:44:59.016Z,3.60
2023-07-30T10:45:59.096Z,3.90
2023-07-30T10:46:59.150Z,3.90
2023-07-30T10:47:59.006Z,3.80
2023-07-30T10:48:59.023Z,3.80
2023-07-30T10:49:58.981Z,3.70
2023-07-30T10:50:58.901Z,3.10
2023-07-30T10:51:59.135Z,3.50
2023-07-30T10:53:01.469Z,2.80
2023-07-30T10:53:58.904Z,3.10
2023-07-30T10:54:58.898Z,3.10
2023-07-30T10:55:58.852Z,3.10
2023-07-30T10:56:58.888Z,2.60
2023-07-30T10:57:58.872Z,2.60
2023-07-30T10:58:58.905Z,2.60
2023-07-30T10:59:58.841Z,2.70
2023-07-30T11:00:58.794Z,2.40
2023-07-30T11:01:58.893Z,2.40
2023-07-30T11:02:58.884Z,2.20
2023-07-30T11:03:58.809Z,2.30
2023-07-30T11:04:58.795Z,2.10
2023-07-30T11:05:58.789Z,2.20
2023-07-30T11:06:58.706Z,2.20
2023-07-30T11:07:58.743Z,2.20
2023-07-30T11:08:58.685Z,2.10
2023-07-30T11:09:58.701Z,2.40
2023-07-30T11:10:58.721Z,2.30
2023-07-30T11:11:58.614Z,2.20
2023-07-30T11:12:58.633Z,2.10
2023-07-30T11:13:58.631Z,2.30
2023-07-30T11:14:58.645Z,2.30
2023-07-30T11:15:58.667Z,2.40
2023-07-30T11:16:58.640Z,2.10
2023-07-30T11:17:58.654Z,2.40
2023-07-30T11:18:58.569Z,2.30
2023-07-30T11:19:58.577Z,2.10
2023-07-30T11:20:58.519Z,2.20
2023-07-30T11:21:58.600Z,2.30
2023-07-30T11:22:58.570Z,2.10
2023-07-30T11:23:58.489Z,2.20
2023-07-30T11:24:58.587Z,2.20
2023-07-30T11:25:58.441Z,2.10
2023-07-30T11:26:58.479Z,1.90
2023-07-30T11:27:58.495Z,2.00
2023-07-30T11:28:58.421Z,1.90
2023-07-30T11:29:58.444Z,2.00
2023-07-30T11:30:58.410Z,2.10
2023-07-30T11:31:58.511Z,2.20
2023-07-30T11:33:02.274Z,2.10
2023-07-30T11:33:58.349Z,2.00
2023-07-30T11:34:58.369Z,2.10
2023-07-30T11:35:58.359Z,2.30
2023-07-30T11:36:58.381Z,2.20
2023-07-30T11:37:58.314Z,2.30
2023-07-30T11:38:58.298Z,2.20
2023-07-30T11:39:58.310Z,2.50
2023-07-30T11:40:58.298Z,2.10
2023-07-30T11:41:58.322Z,2.10
2023-07-30T11:42:58.332Z,2.20
2023-07-30T11:43:58.335Z,2.30
2023-07-30T11:44:58.932Z,2.10
2023-07-30T11:45:58.263Z,2.10
2023-07-30T11:46:58.264Z,2.10
2023-07-30T11:47:58.256Z,2.10
2023-07-30T11:48:58.164Z,2.00
2023-07-30T11:49:58.256Z,2.40
2023-07-30T11:50:58.172Z,2.30
2023-07-30T11:51:58.147Z,2.30
2023-07-30T11:52:58.193Z,2.40
2023-07-30T11:53:58.219Z,2.30
2023-07-30T11:54:58.109Z,2.20
2023-07-30T11:55:58.088Z,1.90
2023-07-30T11:56:58.124Z,2.10
2023-07-30T11:57:59.623Z,1.90
2023-07-30T11:58:58.113Z,2.00
2023-07-30T11:59:58.144Z,2.00
2023-07-30T12:00:58.103Z,1.80
2023-07-30T12:01:58.180Z,2.00
2023-07-30T12:02:58.061Z,2.10
2023-07-30T12:03:58.013Z,2.00
2023-07-30T12:05:06.394Z,2.10
2023-07-30T12:05:58.981Z,2.30
2023-07-30T12:06:57.974Z,2.50
2023-07-30T12:07:57.956Z,2.30
2023-07-30T12:08:57.895Z,2.40
2023-07-30T12:09:57.995Z,2.30
2023-07-30T12:10:57.982Z,2.20
2023-07-30T12:11:57.923Z,2.20
2023-07-30T12:12:57.913Z,2.40
2023-07-30T12:13:57.885Z,2.30
2023-07-30T12:14:57.849Z,1.90
2023-07-30T12:15:57.849Z,2.30
2023-07-30T12:16:57.835Z,2.20
2023-07-30T12:17:57.847Z,2.30
2023-07-30T12:18:57.830Z,2.50
2023-07-30T12:19:57.771Z,2.40
2023-07-30T12:20:57.748Z,2.20
2023-07-30T12:21:57.772Z,2.30
2023-07-30T12:22:57.756Z,2.50
2023-07-30T12:23:57.744Z,2.40
2023-07-30T12:24:57.781Z,2.40
2023-07-30T12:25:57.701Z,2.20
2023-07-30T12:26:57.687Z,2.00
2023-07-30T12:27:58.541Z,2.30
2023-07-30T12:28:57.677Z,1.90
2023-07-30T12:29:58.394Z,2.30
2023-07-30T12:30:57.700Z,2.00
2023-07-30T12:31:57.897Z,2.10
2023-07-30T12:32:57.633Z,2.00
2023-07-30T12:33:57.604Z,2.20
2023-07-30T12:34:57.570Z,2.00
2023-07-30T12:35:57.556Z,2.20
2023-07-30T12:36:57.547Z,2.30
2023-07-30T12:37:57.673Z,2.40
2023-07-30T12:38:57.542Z,2.10
2023-07-30T12:39:57.539Z,2.40
2023-07-30T12:40:57.503Z,2.40
2023-07-30T12:41:57.477Z,2.20
2023-07-30T12:42:57.502Z,2.20
2023-07-30T12:43:57.520Z,2.20
2023-07-30T12:44:58.134Z,2.00
2023-07-30T12:45:57.478Z,2.10
2023-07-30T12:46:57.439Z,2.20
2023-07-30T12:47:57.501Z,2.30
2023-07-30T12:48:57.424Z,2.20
2023-07-30T12:49:57.446Z,2.30
2023-07-30T12:50:58.402Z,2.30
2023-07-30T12:51:57.368Z,2.20
2023-07-30T12:52:57.448Z,2.50
2023-07-30T12:53:57.364Z,2.30
2023-07-30T12:54:58.280Z,2.50
2023-07-30T12:55:57.310Z,2.40
2023-07-30T12:56:57.355Z,2.90
2023-07-30T12:57:57.300Z,2.60
2023-07-30T12:58:57.281Z,2.30
2023-07-30T12:59:57.282Z,2.40
2023-07-30T13:00:57.303Z,2.40
2023-07-30T13:01:57.301Z,2.70
2023-07-30T13:02:57.339Z,3.10
2023-07-30T13:03:57.234Z,2.50
2023-07-30T13:04:57.962Z,2.60
2023-07-30T13:05:57.211Z,2.60
2023-07-30T13:06:57.180Z,2.70
2023-07-30T13:07:57.263Z,3.20
2023-07-30T13:08:57.204Z,3.10
2023-07-30T13:09:57.142Z,5.00
2023-07-30T13:10:57.249Z,3.20
2023-07-30T13:11:57.177Z,5.60
2023-07-30T13:12:57.139Z,4.70
2023-07-30T13:13:57.150Z,5.90
2023-07-30T13:14:57.082Z,7.00
2023-07-30T13:15:57.132Z,3.90
2023-07-30T13:16:57.138Z,5.20
2023-07-30T13:17:57.096Z,4.60
2023-07-30T13:18:57.005Z,4.40
2023-07-30T13:19:57.059Z,4.90